createdAt,value
2019-01-30T00:01:37.323Z,6.15
2019-01-30T00:04:05.389Z,6.33
2019-01-30T00:06:32.955Z,6.26
2019-01-30T00:09:00.408Z,6.13
2019-01-30T00:11:27.780Z,6.17
2019-01-30T00:13:55.204Z,6.36
2019-01-30T00:16:22.639Z,6.38
2019-01-30T00:18:50.007Z,6.02
2019-01-30T00:21:17.529Z,5.99
2019-01-30T00:23:44.970Z,5.92
2019-01-30T00:26:12.434Z,5.87
2019-01-30T00:28:39.910Z,5.87
2019-01-30T00:31:07.352Z,5.78
2019-01-30T00:33:34.899Z,5.62
2019-01-30T00:36:02.468Z,5.48
2019-01-30T00:38:29.896Z,5.53
2019-01-30T00:40:57.320Z,5.47
2019-01-30T00:43:24.757Z,5.51
2019-01-30T00:45:52.327Z,5.44
2019-01-30T00:48:19.786Z,5.40
2019-01-30T00:50:47.276Z,5.38
2019-01-30T00:53:14.705Z,5.38
2019-01-30T00:55:42.178Z,5.29
2019-01-30T00:58:09.619Z,5.36
2019-01-30T01:00:37.240Z,5.35
2019-01-30T01:03:04.926Z,5.41
2019-01-30T01:05:32.790Z,5.25
2019-01-30T01:08:00.348Z,5.03
2019-01-30T01:10:27.771Z,4.99
2019-01-30T01:12:55.223Z,5.20
2019-01-30T01:15:22.666Z,5.19
2019-01-30T01:17:50.099Z,5.30
2019-01-30T01:20:17.840Z,5.51
2019-01-30T01:22:45.622Z,5.72
2019-01-30T01:25:14.323Z,5.81
2019-01-30T01:27:42.200Z,5.96
2019-01-30T01:30:24.842Z,6.00
2019-01-30T01:32:46.921Z,5.84
2019-01-30T01:35:14.555Z,5.30
2019-01-30T01:37:42.002Z,5.57
2019-01-30T01:40:11.448Z,5.59
2019-01-30T01:42:38.932Z,5.44
2019-01-30T01:45:08.605Z,5.26
2019-01-30T01:47:36.193Z,5.15
2019-01-30T01:50:05.541Z,5.11
2019-01-30T01:52:32.971Z,5.08
2019-01-30T01:55:00.386Z,5.12
2019-01-30T01:57:27.825Z,5.12
2019-01-30T01:59:55.307Z,5.10
2019-01-30T02:02:22.745Z,5.06
2019-01-30T02:04:50.250Z,5.28
2019-01-30T02:07:17.722Z,5.58
2019-01-30T02:09:45.186Z,5.49
2019-01-30T02:12:12.669Z,5.48
2019-01-30T02:14:40.070Z,5.58
2019-01-30T02:17:07.502Z,5.64
2019-01-30T02:19:34.961Z,5.92
2019-01-30T02:22:02.356Z,6.08
2019-01-30T02:24:29.783Z,6.20
2019-01-30T02:26:57.235Z,6.25
2019-01-30T02:29:24.596Z,6.59
2019-01-30T02:31:52.054Z,6.55
2019-01-30T02:34:19.536Z,6.61
2019-01-30T02:36:55.976Z,6.75
2019-01-30T02:39:23.665Z,6.52
2019-01-30T02:41:51.494Z,6.37
2019-01-30T02:44:18.946Z,6.64
2019-01-30T02:46:46.467Z,6.80
2019-01-30T02:49:13.952Z,6.77
2019-01-30T02:51:41.326Z,6.79
2019-01-30T02:54:08.810Z,6.62
2019-01-30T02:56:36.265Z,6.49
2019-01-30T02:59:03.791Z,6.43
2019-01-30T03:01:33.122Z,6.38
2019-01-30T03:04:00.529Z,6.44
2019-01-30T03:06:27.969Z,6.24
2019-01-30T03:08:55.403Z,6.26
2019-01-30T03:11:22.827Z,6.01
2019-01-30T03:13:50.267Z,5.96
2019-01-30T03:16:17.838Z,5.94
2019-01-30T03:18:45.292Z,5.84
2019-01-30T03:21:12.700Z,6.03
2019-01-30T03:23:40.160Z,6.24
2019-01-30T03:26:07.602Z,6.34
2019-01-30T03:28:35.010Z,6.73
2019-01-30T03:31:17.012Z,6.64
2019-01-30T03:33:31.928Z,6.78
2019-01-30T03:35:59.367Z,6.71
2019-01-30T03:38:26.793Z,6.48
2019-01-30T03:40:54.208Z,6.40
2019-01-30T03:43:21.630Z,6.35
2019-01-30T03:45:49.254Z,6.49
2019-01-30T03:48:16.806Z,6.44
2019-01-30T03:50:44.293Z,6.57
2019-01-30T03:53:11.672Z,6.64
2019-01-30T03:55:39.083Z,6.73
2019-01-30T03:58:06.507Z,6.85
2019-01-30T04:00:33.886Z,6.88
2019-01-30T04:03:01.411Z,6.83
2019-01-30T04:05:28.869Z,6.87
2019-01-30T04:07:56.309Z,6.92
2019-01-30T04:10:23.809Z,6.97
2019-01-30T04:12:51.579Z,6.74
2019-01-30T04:15:19.244Z,6.78
2019-01-30T04:17:46.749Z,6.79
2019-01-30T04:20:16.433Z,6.79
2019-01-30T04:22:44.039Z,6.51
2019-01-30T04:25:11.580Z,6.43
2019-01-30T04:27:39.036Z,6.34
2019-01-30T04:30:10.152Z,6.25
2019-01-30T04:32:37.747Z,6.28
2019-01-30T04:35:05.610Z,6.20
2019-01-30T04:37:33.030Z,6.02
2019-01-30T04:40:00.476Z,6.13
2019-01-30T04:42:27.964Z,6.12
2019-01-30T04:44:55.389Z,6.39
2019-01-30T04:47:22.954Z,6.68
2019-01-30T04:49:50.472Z,6.73
2019-01-30T04:52:17.914Z,6.69
2019-01-30T04:54:45.317Z,6.51
2019-01-30T04:57:12.805Z,6.62
2019-01-30T04:59:40.260Z,6.78
2019-01-30T05:02:07.715Z,6.76
2019-01-30T05:04:35.113Z,6.91
2019-01-30T05:07:02.549Z,6.80
2019-01-30T05:09:29.953Z,6.80
2019-01-30T05:11:57.492Z,6.75
2019-01-30T05:14:24.898Z,6.66
2019-01-30T05:16:52.373Z,6.70
2019-01-30T05:19:19.900Z,6.99
2019-01-30T05:21:47.297Z,6.92
2019-01-30T05:24:14.736Z,6.70
2019-01-30T05:26:42.283Z,6.52
2019-01-30T05:29:09.690Z,6.55
2019-01-30T05:31:37.146Z,6.64
2019-01-30T05:34:04.702Z,6.61
2019-01-30T05:36:32.161Z,6.39
2019-01-30T05:38:59.604Z,6.39
2019-01-30T05:41:27.051Z,6.50
2019-01-30T05:43:54.427Z,6.67
2019-01-30T05:46:21.911Z,6.76
2019-01-30T05:48:49.463Z,6.74
2019-01-30T05:51:16.837Z,6.79
2019-01-30T05:53:44.343Z,6.76
2019-01-30T05:56:11.878Z,6.55
2019-01-30T05:58:39.276Z,6.33
2019-01-30T06:01:06.733Z,6.09
2019-01-30T06:03:34.302Z,5.96
2019-01-30T06:06:01.672Z,5.81
2019-01-30T06:08:29.720Z,5.72
2019-01-30T06:10:57.236Z,5.71
2019-01-30T06:13:24.733Z,5.67
2019-01-30T06:15:52.217Z,5.74
2019-01-30T06:18:19.579Z,5.78
2019-01-30T06:20:47.020Z,5.82
2019-01-30T06:23:14.496Z,5.96
2019-01-30T06:25:42.070Z,5.89
2019-01-30T06:28:09.439Z,5.81
2019-01-30T06:30:36.901Z,5.76
2019-01-30T06:33:04.496Z,5.75
2019-01-30T06:35:32.178Z,5.76
2019-01-30T06:37:59.635Z,5.86
2019-01-30T06:40:29.963Z,5.94
2019-01-30T06:42:57.638Z,6.08
2019-01-30T06:45:25.321Z,6.12
2019-01-30T06:47:53.009Z,6.44
2019-01-30T06:50:20.891Z,6.66
2019-01-30T06:52:48.327Z,6.84
2019-01-30T06:55:15.711Z,7.05
2019-01-30T06:57:43.160Z,7.05
2019-01-30T07:00:18.582Z,7.19
2019-01-30T07:02:46.482Z,7.31
2019-01-30T07:05:14.159Z,7.20
2019-01-30T07:07:41.610Z,7.05
2019-01-30T07:10:13.324Z,7.21
2019-01-30T07:12:40.794Z,7.27
2019-01-30T07:15:08.441Z,7.13
2019-01-30T07:17:36.011Z,7.19
2019-01-30T07:20:04.602Z,7.06
2019-01-30T07:22:32.028Z,6.86
2019-01-30T07:24:59.419Z,6.86
2019-01-30T07:27:26.867Z,7.15
2019-01-30T07:29:54.368Z,7.04
2019-01-30T07:32:21.797Z,6.97
2019-01-30T07:34:49.236Z,6.89
2019-01-30T07:37:16.779Z,6.82
2019-01-30T07:39:44.209Z,6.81
2019-01-30T07:42:11.702Z,6.71
2019-01-30T07:44:39.135Z,6.67
2019-01-30T07:47:06.709Z,6.66
2019-01-30T07:49:34.101Z,6.63
2019-01-30T07:52:01.681Z,6.64
2019-01-30T07:54:29.217Z,6.69
2019-01-30T07:56:56.705Z,6.79
2019-01-30T07:59:24.138Z,6.93
2019-01-30T08:01:51.731Z,6.96
2019-01-30T08:04:19.174Z,6.92
2019-01-30T08:06:46.704Z,6.91
2019-01-30T08:09:14.146Z,6.95
2019-01-30T08:11:41.609Z,7.03
2019-01-30T08:14:09.124Z,7.04
2019-01-30T08:16:36.544Z,7.08
2019-01-30T08:19:04.152Z,7.12
2019-01-30T08:21:31.626Z,7.32
2019-01-30T08:23:59.466Z,7.57
2019-01-30T08:26:26.892Z,7.53
2019-01-30T08:28:54.388Z,7.44
2019-01-30T08:31:21.867Z,7.45
2019-01-30T08:33:49.329Z,7.55
2019-01-30T08:36:16.766Z,7.66
2019-01-30T08:38:44.248Z,7.73
2019-01-30T08:41:11.756Z,7.63
2019-01-30T08:43:39.142Z,7.69
2019-01-30T08:46:06.678Z,7.65
2019-01-30T08:48:34.252Z,7.60
2019-01-30T08:51:01.954Z,7.71
2019-01-30T08:53:29.577Z,7.80
2019-01-30T08:55:57.096Z,7.82
2019-01-30T08:58:24.453Z,7.74
2019-01-30T09:00:51.984Z,7.85
2019-01-30T09:03:19.528Z,7.91
2019-01-30T09:05:46.991Z,7.96
2019-01-30T09:08:14.603Z,7.91
2019-01-30T09:10:42.176Z,7.89
2019-01-30T09:13:09.642Z,8.02
2019-01-30T09:15:37.388Z,8.14
2019-01-30T09:18:05.224Z,8.40
2019-01-30T09:20:32.748Z,8.33
2019-01-30T09:23:00.146Z,8.33
2019-01-30T09:25:29.131Z,8.28
2019-01-30T09:27:57.015Z,8.34
2019-01-30T09:30:33.273Z,8.39
2019-01-30T09:33:00.749Z,8.63
2019-01-30T09:35:28.238Z,8.76
2019-01-30T09:37:56.175Z,8.62
2019-01-30T09:40:24.030Z,9.14
2019-01-30T09:42:51.490Z,9.16
2019-01-30T09:45:19.162Z,9.12
2019-01-30T09:47:46.618Z,9.07
2019-01-30T09:50:17.376Z,9.10
2019-01-30T09:52:44.880Z,8.90
2019-01-30T09:55:13.360Z,8.86
2019-01-30T09:57:40.801Z,8.95
2019-01-30T10:00:18.711Z,8.84
2019-01-30T10:02:46.289Z,8.95
2019-01-30T10:05:13.899Z,9.29
2019-01-30T10:07:41.345Z,9.19
2019-01-30T10:10:15.120Z,8.98
2019-01-30T10:12:42.623Z,8.98
2019-01-30T10:15:11.134Z,9.11
2019-01-30T10:17:38.629Z,9.28
2019-01-30T10:20:09.365Z,9.28
2019-01-30T10:22:36.789Z,9.31
2019-01-30T10:25:05.116Z,9.41
2019-01-30T10:27:32.582Z,9.53
2019-01-30T10:30:00.210Z,9.37
2019-01-30T10:32:27.835Z,9.34
2019-01-30T10:34:55.196Z,9.43
2019-01-30T10:37:22.809Z,9.51
2019-01-30T10:39:50.644Z,9.57
2019-01-30T10:42:18.049Z,9.78
2019-01-30T10:44:45.557Z,9.86
2019-01-30T10:47:13.124Z,9.72
2019-01-30T10:49:40.697Z,9.69
2019-01-30T10:52:08.239Z,9.53
2019-01-30T10:54:35.773Z,9.54
2019-01-30T10:57:03.728Z,9.62
2019-01-30T10:59:31.321Z,9.65
2019-01-30T11:01:58.888Z,9.53
2019-01-30T11:04:26.314Z,9.48
2019-01-30T11:06:53.745Z,9.38
2019-01-30T11:09:21.275Z,9.49
2019-01-30T11:11:48.786Z,9.50
2019-01-30T11:14:16.207Z,9.66
2019-01-30T11:16:43.660Z,9.72
2019-01-30T11:19:11.173Z,9.75
2019-01-30T11:21:38.636Z,9.67
2019-01-30T11:24:06.064Z,9.59
2019-01-30T11:26:33.641Z,9.56
2019-01-30T11:29:01.189Z,9.56
2019-01-30T11:31:28.680Z,9.54
2019-01-30T11:33:56.099Z,9.57
2019-01-30T11:36:23.593Z,9.73
2019-01-30T11:38:51.013Z,9.75
2019-01-30T11:41:18.495Z,9.86
2019-01-30T11:43:46.011Z,9.83
2019-01-30T11:46:13.706Z,9.92
2019-01-30T11:48:41.249Z,9.92
2019-01-30T11:51:08.803Z,9.84
2019-01-30T11:53:36.583Z,9.75
2019-01-30T11:56:05.065Z,9.86
2019-01-30T11:58:32.719Z,9.97
2019-01-30T12:01:03.369Z,9.93
2019-01-30T12:03:30.967Z,10.09
2019-01-30T12:05:58.414Z,10.02
2019-01-30T12:08:25.970Z,10.34
2019-01-30T12:10:53.441Z,10.39
2019-01-30T12:13:21.191Z,10.53
2019-01-30T12:15:48.828Z,10.69
2019-01-30T12:18:16.389Z,10.69
2019-01-30T12:20:43.970Z,10.86
2019-01-30T12:23:11.362Z,10.81
2019-01-30T12:25:38.815Z,10.33
2019-01-30T12:28:06.383Z,10.20
2019-01-30T12:30:33.829Z,10.32
2019-01-30T12:33:01.287Z,10.50
2019-01-30T12:35:28.781Z,10.62
2019-01-30T12:37:56.273Z,10.54
2019-01-30T12:40:24.337Z,10.49
2019-01-30T12:42:51.950Z,10.43
2019-01-30T12:45:38.199Z,10.43
2019-01-30T12:48:07.099Z,10.43
2019-01-30T12:50:34.691Z,10.63
2019-01-30T12:53:02.181Z,10.73
2019-01-30T12:55:30.105Z,10.90
2019-01-30T12:57:57.631Z,10.82
2019-01-30T13:00:31.046Z,10.92
2019-01-30T13:02:58.643Z,10.99
2019-01-30T13:05:28.659Z,10.87
2019-01-30T13:07:56.119Z,10.81
2019-01-30T13:10:23.696Z,10.70
2019-01-30T13:12:51.248Z,10.69
2019-01-30T13:15:19.926Z,10.71
2019-01-30T13:17:47.431Z,10.84
2019-01-30T13:20:16.716Z,10.67
2019-01-30T13:22:44.411Z,10.58
2019-01-30T13:25:12.852Z,10.38
2019-01-30T13:27:40.376Z,10.26
2019-01-30T13:30:12.338Z,10.09
2019-01-30T13:32:39.801Z,9.93
2019-01-30T13:35:07.453Z,9.94
2019-01-30T13:37:34.873Z,9.91
2019-01-30T13:40:03.005Z,9.85
2019-01-30T13:42:30.458Z,9.83
2019-01-30T13:44:57.830Z,9.74
2019-01-30T13:47:25.281Z,9.68
2019-01-30T13:49:52.851Z,9.61
2019-01-30T13:52:20.266Z,9.60
2019-01-30T13:54:47.756Z,9.50
2019-01-30T13:57:15.202Z,9.57
2019-01-30T13:59:42.667Z,9.58
2019-01-30T14:02:10.348Z,9.58
2019-01-30T14:04:37.793Z,9.62
2019-01-30T14:07:05.281Z,9.63
2019-01-30T14:09:32.767Z,9.50
2019-01-30T14:12:00.380Z,9.33
2019-01-30T14:14:27.833Z,9.23
2019-01-30T14:16:55.290Z,9.24
2019-01-30T14:19:22.761Z,9.19
2019-01-30T14:21:50.265Z,9.12
2019-01-30T14:24:17.703Z,9.16
2019-01-30T14:26:45.214Z,9.15
2019-01-30T14:29:12.721Z,9.11
2019-01-30T14:31:40.561Z,9.10
2019-01-30T14:34:09.113Z,9.02
2019-01-30T14:36:36.663Z,9.02
2019-01-30T14:39:07.660Z,9.11
2019-01-30T14:41:35.295Z,9.05
2019-01-30T14:44:02.938Z,8.95
2019-01-30T14:46:30.354Z,8.95
2019-01-30T14:48:57.799Z,8.99
2019-01-30T14:51:25.334Z,9.02
2019-01-30T14:53:52.768Z,9.11
2019-01-30T14:56:20.217Z,9.15
2019-01-30T14:58:47.875Z,9.16
2019-01-30T15:01:15.433Z,9.22
2019-01-30T15:03:43.063Z,9.16
2019-01-30T15:06:10.572Z,9.14
2019-01-30T15:08:38.061Z,9.22
2019-01-30T15:11:05.842Z,9.21
2019-01-30T15:13:33.326Z,9.11
2019-01-30T15:16:00.968Z,9.16
2019-01-30T15:18:28.389Z,8.99
2019-01-30T15:20:55.790Z,9.11
2019-01-30T15:23:23.214Z,8.80
2019-01-30T15:25:50.723Z,8.52
2019-01-30T15:28:18.118Z,8.40
2019-01-30T15:30:47.072Z,8.27
2019-01-30T15:33:14.769Z,8.21
2019-01-30T15:35:42.433Z,8.15
2019-01-30T15:38:12.459Z,8.10
2019-01-30T15:40:40.680Z,8.13
2019-01-30T15:43:08.116Z,8.31
2019-01-30T15:45:35.650Z,8.27
2019-01-30T15:48:03.521Z,8.32
2019-01-30T15:50:31.956Z,8.61
2019-01-30T15:53:01.254Z,8.61
2019-01-30T15:55:28.846Z,8.57
2019-01-30T15:58:02.589Z,8.56
2019-01-30T16:00:35.761Z,8.67
2019-01-30T16:03:03.404Z,8.63
2019-01-30T16:05:31.158Z,8.67
2019-01-30T16:07:58.680Z,8.73
2019-01-30T16:10:26.417Z,8.79
2019-01-30T16:12:53.910Z,8.98
2019-01-30T16:15:24.750Z,9.13
2019-01-30T16:17:52.273Z,9.14
2019-01-30T16:20:19.919Z,9.04
2019-01-30T16:22:47.508Z,9.15
2019-01-30T16:25:15.385Z,9.16
2019-01-30T16:27:42.907Z,9.07
2019-01-30T16:30:14.405Z,9.15
2019-01-30T16:32:41.992Z,9.12
2019-01-30T16:35:12.073Z,9.16
2019-01-30T16:37:39.655Z,8.97
2019-01-30T16:40:08.929Z,9.19
2019-01-30T16:42:36.396Z,8.97
2019-01-30T16:45:05.406Z,8.81
2019-01-30T16:47:32.829Z,8.78
2019-01-30T16:50:04.767Z,8.74
2019-01-30T16:52:36.064Z,8.72
2019-01-30T16:55:04.289Z,8.66
2019-01-30T16:57:36.078Z,8.67
2019-01-30T17:00:06.079Z,8.69
2019-01-30T17:02:33.639Z,8.63
2019-01-30T17:05:01.099Z,8.68
2019-01-30T17:07:28.703Z,8.80
2019-01-30T17:09:56.127Z,8.73
2019-01-30T17:12:23.661Z,8.79
2019-01-30T17:14:51.107Z,8.63
2019-01-30T17:17:18.604Z,8.49
2019-01-30T17:19:46.294Z,8.38
2019-01-30T17:22:13.944Z,8.33
2019-01-30T17:24:41.345Z,8.16
2019-01-30T17:27:08.937Z,8.01
2019-01-30T17:29:36.394Z,7.75
2019-01-30T17:32:08.185Z,7.59
2019-01-30T17:34:41.932Z,7.47
2019-01-30T17:37:09.766Z,7.45
2019-01-30T17:39:42.724Z,7.37
2019-01-30T17:42:14.870Z,7.33
2019-01-30T17:44:48.034Z,7.20
2019-01-30T17:47:15.506Z,7.17
2019-01-30T17:49:42.949Z,7.14
2019-01-30T17:52:12.480Z,7.23
2019-01-30T17:54:48.169Z,7.16
2019-01-30T17:57:15.788Z,7.07
2019-01-30T17:59:49.190Z,7.01
2019-01-30T18:02:17.127Z,6.75
2019-01-30T18:04:44.728Z,6.62
2019-01-30T18:07:12.169Z,6.51
2019-01-30T18:09:39.749Z,6.32
2019-01-30T18:12:07.206Z,6.36
2019-01-30T18:14:34.683Z,6.26
2019-01-30T18:17:02.063Z,6.28
2019-01-30T18:19:29.790Z,6.19
2019-01-30T18:21:57.207Z,6.18
2019-01-30T18:24:24.705Z,6.15
2019-01-30T18:26:52.162Z,6.10
2019-01-30T18:29:19.631Z,6.10
2019-01-30T18:31:47.116Z,6.13
2019-01-30T18:34:14.632Z,6.07
2019-01-30T18:36:42.130Z,6.11
2019-01-30T18:39:09.831Z,6.24
2019-01-30T18:41:37.534Z,6.25
2019-01-30T18:44:05.135Z,6.37
2019-01-30T18:46:32.611Z,6.49
2019-01-30T18:49:00.087Z,6.38
2019-01-30T18:51:27.535Z,6.57
2019-01-30T18:53:54.993Z,6.60
2019-01-30T18:56:22.652Z,6.52
2019-01-30T18:58:50.168Z,6.57
2019-01-30T19:01:17.618Z,6.52
2019-01-30T19:03:44.990Z,6.38
2019-01-30T19:06:12.444Z,6.23
2019-01-30T19:08:40.903Z,6.12
2019-01-30T19:11:08.450Z,6.08
2019-01-30T19:13:35.878Z,6.05
2019-01-30T19:16:03.855Z,6.01
2019-01-30T19:18:31.334Z,6.00
2019-01-30T19:20:58.807Z,6.02
2019-01-30T19:23:26.163Z,5.93
2019-01-30T19:25:53.595Z,5.75
2019-01-30T19:28:21.561Z,5.76
2019-01-30T19:30:49.051Z,5.71
2019-01-30T19:33:16.636Z,5.63
2019-01-30T19:35:44.239Z,5.64
2019-01-30T19:38:11.723Z,5.73
2019-01-30T19:40:39.279Z,5.60
2019-01-30T19:43:06.853Z,5.64
2019-01-30T19:45:34.338Z,5.67
2019-01-30T19:48:02.011Z,5.67
2019-01-30T19:50:30.086Z,5.62
2019-01-30T19:52:58.637Z,5.77
2019-01-30T19:55:26.414Z,5.73
2019-01-30T19:57:54.242Z,5.84
2019-01-30T20:00:27.450Z,5.75
2019-01-30T20:02:55.131Z,5.77
2019-01-30T20:05:22.936Z,5.80
2019-01-30T20:07:50.641Z,5.86
2019-01-30T20:10:23.813Z,5.92
2019-01-30T20:12:51.621Z,5.86
2019-01-30T20:15:19.310Z,5.75
2019-01-30T20:17:46.903Z,5.91
2019-01-30T20:20:15.879Z,5.87
2019-01-30T20:22:43.418Z,5.90
2019-01-30T20:25:14.345Z,5.87
2019-01-30T20:27:55.236Z,5.84
2019-01-30T20:30:26.072Z,5.97
2019-01-30T20:32:53.691Z,5.72
2019-01-30T20:35:21.402Z,5.59
2019-01-30T20:37:48.823Z,5.44
2019-01-30T20:40:21.908Z,5.57
2019-01-30T20:42:55.350Z,5.62
2019-01-30T20:45:33.559Z,5.55
2019-01-30T20:47:52.721Z,5.58
2019-01-30T20:50:25.252Z,5.69
2019-01-30T20:52:57.873Z,5.74
2019-01-30T20:55:33.898Z,5.45
2019-01-30T20:58:07.434Z,5.38
2019-01-30T21:00:37.090Z,5.65
2019-01-30T21:03:06.444Z,5.83
2019-01-30T21:05:44.847Z,5.91
2019-01-30T21:08:11.501Z,6.06
2019-01-30T21:10:40.846Z,6.28
2019-01-30T21:13:09.988Z,6.23
2019-01-30T21:15:37.403Z,6.39
2019-01-30T21:18:05.089Z,6.31
2019-01-30T21:20:32.897Z,6.04
2019-01-30T21:23:00.479Z,6.15
2019-01-30T21:25:27.938Z,6.28
2019-01-30T21:27:55.379Z,6.38
2019-01-30T21:30:25.404Z,6.41
2019-01-30T21:32:52.887Z,6.48
2019-01-30T21:35:20.365Z,6.59
2019-01-30T21:37:49.038Z,6.55
2019-01-30T21:40:17.296Z,6.12
2019-01-30T21:42:44.969Z,5.81
2019-01-30T21:45:15.174Z,5.82
2019-01-30T21:47:42.544Z,6.00
2019-01-30T21:50:10.517Z,6.08
2019-01-30T21:52:38.136Z,6.01
2019-01-30T21:55:07.387Z,5.79
2019-01-30T21:57:34.752Z,5.67
2019-01-30T22:00:02.324Z,5.48
2019-01-30T22:02:29.771Z,5.47
2019-01-30T22:04:57.193Z,5.42
2019-01-30T22:07:24.566Z,5.57
2019-01-30T22:09:52.110Z,5.37
2019-01-30T22:12:19.571Z,5.36
2019-01-30T22:14:47.047Z,5.27
2019-01-30T22:17:14.600Z,5.44
2019-01-30T22:19:42.069Z,5.49
2019-01-30T22:22:09.533Z,5.44
2019-01-30T22:24:37.104Z,5.58
2019-01-30T22:27:04.520Z,5.98
2019-01-30T22:29:31.966Z,6.00
2019-01-30T22:31:59.430Z,5.87
2019-01-30T22:34:26.859Z,5.82
2019-01-30T22:36:54.341Z,5.50
2019-01-30T22:39:21.790Z,5.19
2019-01-30T22:41:49.227Z,5.11
2019-01-30T22:44:16.633Z,4.98
2019-01-30T22:46:44.055Z,5.15
2019-01-30T22:49:11.500Z,5.40
2019-01-30T22:51:38.956Z,5.13
2019-01-30T22:54:06.457Z,5.11
2019-01-30T22:56:33.887Z,5.19
2019-01-30T22:59:01.317Z,5.29
2019-01-30T23:01:37.612Z,5.63
2019-01-30T23:04:41.593Z,5.78
2019-01-30T23:07:40.121Z,5.98
2019-01-30T23:10:53.954Z,5.84
2019-01-30T23:14:01.693Z,5.72
2019-01-30T23:17:04.257Z,5.71
2019-01-30T23:19:49.026Z,5.63
2019-01-30T23:23:08.378Z,5.22
2019-01-30T23:25:52.820Z,5.16
2019-01-30T23:29:20.143Z,5.16
2019-01-30T23:32:05.946Z,5.42
2019-01-30T23:35:15.441Z,5.53
2019-01-30T23:38:36.602Z,5.47
2019-01-30T23:41:31.667Z,5.40
2019-01-30T23:44:45.692Z,5.29
2019-01-30T23:47:42.034Z,5.12
2019-01-30T23:50:59.972Z,5.35
2019-01-30T23:53:59.664Z,5.21
2019-01-30T23:57:04.443Z,5.42
2019-01-30T23:59:48.593Z,5.53
